createdAt,value
2022-11-27T00:00:06.110Z,8.50
2022-11-27T00:02:40.572Z,8.40
2022-11-27T00:05:10.356Z,8.39
2022-11-27T00:07:50.215Z,8.46
2022-11-27T00:10:18.333Z,8.41
2022-11-27T00:12:48.597Z,8.48
2022-11-27T00:15:19.269Z,8.43
2022-11-27T00:17:48.224Z,8.41
2022-11-27T00:20:15.895Z,8.47
2022-11-27T00:22:42.861Z,8.48
2022-11-27T00:25:30.958Z,8.48
2022-11-27T00:28:22.341Z,8.50
2022-11-27T00:37:27.129Z,8.46
2022-11-27T00:40:55.890Z,8.43
2022-11-27T00:47:04.121Z,8.57
2022-11-27T00:49:45.186Z,8.48
2022-11-27T00:52:39.224Z,8.41
2022-11-27T01:04:31.829Z,8.43
2022-11-27T01:07:24.387Z,8.42
2022-11-27T01:10:11.671Z,8.33
2022-11-27T01:19:12.722Z,8.47
2022-11-27T01:22:03.228Z,8.45
2022-11-27T01:25:04.274Z,8.47
2022-11-27T01:27:53.368Z,8.50
2022-11-27T01:30:57.211Z,8.49
2022-11-27T01:34:34.359Z,8.40
2022-11-27T01:37:22.250Z,8.44
2022-11-27T01:40:21.128Z,8.49
2022-11-27T01:43:08.974Z,8.48
2022-11-27T01:48:57.850Z,8.49
2022-11-27T01:52:00.340Z,8.45
2022-11-27T01:55:06.265Z,8.43
2022-11-27T01:58:34.382Z,8.50
2022-11-27T02:11:06.388Z,8.35
2022-11-27T02:13:53.482Z,8.46
2022-11-27T02:17:12.126Z,8.37
2022-11-27T02:20:28.522Z,8.50
2022-11-27T02:23:52.468Z,8.41
2022-11-27T02:26:53.913Z,8.43
2022-11-27T02:29:55.313Z,8.36
2022-11-27T02:33:00.163Z,8.40
2022-11-27T02:36:19.259Z,8.47
2022-11-27T02:42:23.925Z,8.38
2022-11-27T02:45:05.037Z,8.19
2022-11-27T02:50:36.753Z,8.24
2022-11-27T02:53:36.667Z,8.18
2022-11-27T02:56:31.865Z,8.16
2022-11-27T02:59:17.758Z,8.10
2022-11-27T03:02:14.323Z,8.04
2022-11-27T03:08:41.132Z,8.15
2022-11-27T03:11:29.247Z,8.04
2022-11-27T03:14:26.297Z,8.13
2022-11-27T03:17:28.280Z,8.11
2022-11-27T03:20:42.512Z,8.01
2022-11-27T03:23:40.949Z,7.88
2022-11-27T03:26:49.394Z,7.98
2022-11-27T03:29:44.202Z,7.71
2022-11-27T03:32:22.448Z,7.81
2022-11-27T03:35:09.318Z,7.70
2022-11-27T03:37:54.558Z,7.68
2022-11-27T03:40:57.498Z,7.60
2022-11-27T03:43:43.584Z,7.41
2022-11-27T03:50:11.611Z,7.45
2022-11-27T03:56:59.285Z,7.31
2022-11-27T04:02:39.543Z,7.09
2022-11-27T04:05:53.154Z,7.13
2022-11-27T04:09:03.647Z,6.94
2022-11-27T04:12:03.507Z,6.88
2022-11-27T04:14:50.158Z,6.89
2022-11-27T04:17:30.485Z,6.92
2022-11-27T04:20:16.218Z,6.89
2022-11-27T04:22:53.530Z,6.83
2022-11-27T04:28:25.540Z,6.74
2022-11-27T04:31:11.737Z,6.67
2022-11-27T04:34:06.337Z,6.66
2022-11-27T04:37:11.578Z,6.46
2022-11-27T04:40:07.858Z,6.43
2022-11-27T04:43:04.154Z,6.35
2022-11-27T04:45:44.453Z,6.47
2022-11-27T04:48:33.177Z,6.39
2022-11-27T04:51:18.695Z,6.34
2022-11-27T04:53:53.626Z,6.29
2022-11-27T04:56:32.357Z,6.28
2022-11-27T04:59:08.125Z,6.19
2022-11-27T05:01:58.711Z,6.22
2022-11-27T05:04:36.701Z,6.13
2022-11-27T05:07:17.699Z,6.07
2022-11-27T05:10:10.003Z,6.12
2022-11-27T05:13:00.927Z,6.04
2022-11-27T05:16:11.090Z,5.99
2022-11-27T05:19:03.129Z,6.10
2022-11-27T05:21:47.889Z,5.95
2022-11-27T05:24:26.220Z,5.99
2022-11-27T05:27:06.434Z,5.92
2022-11-27T05:29:50.288Z,5.90
2022-11-27T05:32:43.487Z,5.79
2022-11-27T05:35:26.076Z,5.78
2022-11-27T05:38:08.857Z,5.75
2022-11-27T05:40:56.745Z,5.84
2022-11-27T05:43:34.859Z,5.76
2022-11-27T05:46:23.690Z,5.74
2022-11-27T05:52:20.813Z,5.55
2022-11-27T05:55:02.571Z,5.56
2022-11-27T05:57:50.582Z,5.53
2022-11-27T06:03:45.594Z,5.39
2022-11-27T06:06:26.901Z,5.43
2022-11-27T06:09:17.933Z,5.43
2022-11-27T06:11:56.889Z,5.51
2022-11-27T06:17:27.283Z,5.64
2022-11-27T06:20:16.208Z,5.47
2022-11-27T06:22:53.097Z,5.38
2022-11-27T06:28:18.187Z,5.42
2022-11-27T06:31:26.342Z,5.39
2022-11-27T06:34:07.529Z,5.28
2022-11-27T06:37:11.756Z,5.22
2022-11-27T06:40:02.265Z,5.30
2022-11-27T06:42:52.244Z,5.22
2022-11-27T06:51:00.306Z,5.29
2022-11-27T06:53:37.139Z,5.43
2022-11-27T06:56:25.139Z,5.32
2022-11-27T06:58:59.190Z,5.35
2022-11-27T07:01:50.511Z,5.27
2022-11-27T07:10:23.876Z,4.93
2022-11-27T07:13:00.639Z,5.11
2022-11-27T07:19:52.940Z,5.28
2022-11-27T07:25:17.751Z,5.29
2022-11-27T07:27:52.122Z,5.29
2022-11-27T07:33:18.593Z,5.29
2022-11-27T07:39:06.838Z,5.19
2022-11-27T07:42:37.101Z,5.23
2022-11-27T07:44:55.982Z,5.17
2022-11-27T07:47:27.757Z,5.22
2022-11-27T07:50:01.116Z,5.34
2022-11-27T07:52:39.524Z,5.17
2022-11-27T07:55:27.074Z,5.17
2022-11-27T07:58:05.536Z,5.30
2022-11-27T08:00:45.183Z,5.33
2022-11-27T08:03:18.051Z,5.36
2022-11-27T08:05:59.223Z,5.45
2022-11-27T08:08:45.622Z,5.23
2022-11-27T08:11:32.120Z,5.27
2022-11-27T08:14:19.410Z,5.33
2022-11-27T08:16:55.808Z,5.24
2022-11-27T08:19:28.121Z,5.35
2022-11-27T08:21:59.122Z,5.35
2022-11-27T08:33:35.856Z,5.49
2022-11-27T08:36:17.632Z,5.44
2022-11-27T08:39:04.446Z,5.43
2022-11-27T08:41:37.381Z,5.39
2022-11-27T08:44:39.548Z,5.40
2022-11-27T08:47:43.902Z,5.37
2022-11-27T08:50:20.556Z,5.52
2022-11-27T08:52:59.870Z,5.55
2022-11-27T08:56:12.353Z,5.49
2022-11-27T08:58:49.281Z,5.38
2022-11-27T09:01:31.658Z,5.38
2022-11-27T09:04:06.401Z,5.46
2022-11-27T09:06:37.962Z,5.41
2022-11-27T09:09:06.981Z,5.45
2022-11-27T09:11:41.816Z,5.41
2022-11-27T09:14:25.187Z,5.60
2022-11-27T09:17:10.536Z,5.57
2022-11-27T09:19:44.688Z,5.53
2022-11-27T09:25:17.787Z,5.49
2022-11-27T09:28:17.663Z,5.53
2022-11-27T09:30:51.817Z,5.72
2022-11-27T09:37:06.115Z,5.61
2022-11-27T09:39:47.418Z,5.87
2022-11-27T09:43:00.294Z,5.85
2022-11-27T09:45:55.910Z,5.95
2022-11-27T09:51:36.528Z,6.10
2022-11-27T09:54:42.999Z,6.15
2022-11-27T10:00:29.761Z,6.32
2022-11-27T10:03:51.739Z,6.26
2022-11-27T10:06:49.904Z,6.13
2022-11-27T10:09:56.452Z,6.11
2022-11-27T10:13:02.353Z,6.02
2022-11-27T10:15:59.796Z,6.24
2022-11-27T10:18:58.538Z,6.27
2022-11-27T10:21:54.517Z,6.17
2022-11-27T10:24:42.611Z,6.24
2022-11-27T10:27:24.313Z,6.42
2022-11-27T10:29:57.311Z,6.43
2022-11-27T10:35:32.474Z,6.45
2022-11-27T10:41:28.384Z,6.37
2022-11-27T10:44:12.937Z,6.56
2022-11-27T10:46:41.675Z,6.55
2022-11-27T10:49:10.239Z,6.47
2022-11-27T10:51:38.513Z,6.64
2022-11-27T10:54:17.019Z,6.70
2022-11-27T10:57:12.763Z,6.69
2022-11-27T11:00:11.719Z,6.63
2022-11-27T11:02:41.700Z,6.69
2022-11-27T11:05:37.378Z,6.72
2022-11-27T11:08:08.777Z,6.73
2022-11-27T11:13:49.061Z,6.70
2022-11-27T11:16:34.521Z,6.66
2022-11-27T11:19:07.164Z,6.78
2022-11-27T11:21:45.780Z,6.73
2022-11-27T11:24:34.743Z,6.72
2022-11-27T11:27:13.421Z,6.76
2022-11-27T11:29:48.511Z,6.91
2022-11-27T11:32:24.376Z,6.88
2022-11-27T11:35:00.597Z,6.88
2022-11-27T11:37:31.994Z,6.82
2022-11-27T11:40:05.645Z,6.85
2022-11-27T11:42:36.504Z,6.85
2022-11-27T11:45:13.319Z,6.90
2022-11-27T11:48:02.248Z,6.85
2022-11-27T11:50:48.967Z,6.78
2022-11-27T11:53:24.548Z,6.78
2022-11-27T11:55:54.356Z,6.74
2022-11-27T11:58:35.968Z,6.77
2022-11-27T12:01:26.951Z,6.72
2022-11-27T12:04:32.816Z,6.72
2022-11-27T12:06:59.701Z,6.96
2022-11-27T12:09:36.099Z,6.88
2022-11-27T12:12:25.101Z,6.91
2022-11-27T12:15:27.210Z,6.85
2022-11-27T12:18:21.192Z,6.90
2022-11-27T12:20:57.306Z,6.80
2022-11-27T12:24:03.247Z,6.71
2022-11-27T12:26:30.000Z,6.87
2022-11-27T12:29:07.970Z,6.77
2022-11-27T12:32:08.755Z,6.76
2022-11-27T12:34:39.113Z,6.71
2022-11-27T12:37:18.190Z,6.64
2022-11-27T12:40:04.594Z,6.76
2022-11-27T12:43:02.842Z,6.72
2022-11-27T12:45:38.115Z,6.75
2022-11-27T12:48:33.438Z,6.75
2022-11-27T12:51:24.400Z,6.77
2022-11-27T12:53:54.650Z,6.78
2022-11-27T12:56:40.382Z,6.76
2022-11-27T12:59:33.322Z,6.77
2022-11-27T13:02:14.841Z,6.87
2022-11-27T13:04:57.366Z,6.77
2022-11-27T13:07:38.863Z,6.72
2022-11-27T13:10:24.346Z,6.79
2022-11-27T13:13:08.292Z,6.75
2022-11-27T13:15:58.153Z,6.80
2022-11-27T13:18:36.851Z,6.75
2022-11-27T13:21:14.677Z,6.78
2022-11-27T13:23:41.544Z,6.76
2022-11-27T13:26:20.787Z,6.78
2022-11-27T13:29:02.182Z,6.66
2022-11-27T13:31:35.435Z,6.69
2022-11-27T13:34:08.588Z,6.78
2022-11-27T13:36:39.813Z,6.69
2022-11-27T13:39:07.247Z,6.78
2022-11-27T13:41:44.577Z,6.66
2022-11-27T13:44:24.380Z,6.64
2022-11-27T13:46:54.898Z,6.74
2022-11-27T13:49:27.891Z,6.69
2022-11-27T13:52:07.630Z,6.60
2022-11-27T13:54:34.607Z,6.55
2022-11-27T13:57:16.388Z,6.58
2022-11-27T13:59:59.666Z,6.70
2022-11-27T14:02:46.404Z,6.54
2022-11-27T14:05:15.890Z,6.61
2022-11-27T14:07:49.390Z,6.65
2022-11-27T14:10:29.322Z,6.56
2022-11-27T14:13:01.763Z,6.66
2022-11-27T14:15:30.787Z,6.53
2022-11-27T14:18:27.816Z,6.49
2022-11-27T14:21:00.522Z,6.55
2022-11-27T14:23:50.222Z,6.52
2022-11-27T14:26:20.834Z,6.42
2022-11-27T14:28:55.684Z,6.51
2022-11-27T14:31:33.187Z,6.45
2022-11-27T14:34:15.587Z,6.51
2022-11-27T14:36:43.985Z,6.45
2022-11-27T14:39:22.205Z,6.44
2022-11-27T14:42:00.770Z,6.41
2022-11-27T14:44:28.869Z,6.29
2022-11-27T14:47:02.397Z,6.35
2022-11-27T14:49:31.729Z,6.38
2022-11-27T14:52:08.175Z,6.36
2022-11-27T14:54:40.138Z,6.37
2022-11-27T14:57:14.371Z,6.34
2022-11-27T14:59:41.662Z,6.34
2022-11-27T15:02:11.859Z,6.30
2022-11-27T15:04:42.815Z,6.34
2022-11-27T15:07:18.756Z,6.29
2022-11-27T15:09:49.197Z,6.23
2022-11-27T15:12:26.786Z,6.26
2022-11-27T15:15:01.837Z,6.25
2022-11-27T15:17:31.528Z,6.34
2022-11-27T15:20:01.428Z,6.33
2022-11-27T15:22:28.442Z,6.30
2022-11-27T15:25:04.197Z,6.25
2022-11-27T15:27:32.424Z,6.25
2022-11-27T15:30:02.482Z,6.24
2022-11-27T15:32:47.022Z,6.29
2022-11-27T15:35:15.955Z,6.21
2022-11-27T15:37:42.976Z,6.26
2022-11-27T15:40:36.364Z,6.24
2022-11-27T15:43:11.549Z,6.15
2022-11-27T15:45:40.265Z,6.24
2022-11-27T15:48:15.498Z,6.29
2022-11-27T15:50:45.486Z,6.35
2022-11-27T15:53:17.181Z,6.29
2022-11-27T15:55:44.072Z,6.28
2022-11-27T15:58:11.426Z,6.24
2022-11-27T16:00:38.436Z,6.26
2022-11-27T16:03:05.465Z,6.36
2022-11-27T16:05:32.438Z,6.28
2022-11-27T16:07:59.461Z,6.21
2022-11-27T16:10:26.408Z,6.21
2022-11-27T16:12:55.488Z,6.23
2022-11-27T16:15:23.891Z,6.24
2022-11-27T16:17:52.074Z,6.18
2022-11-27T16:20:19.546Z,6.29
2022-11-27T16:22:46.590Z,6.25
2022-11-27T16:25:13.755Z,6.21
2022-11-27T16:27:40.861Z,6.16
2022-11-27T16:30:08.461Z,6.24
2022-11-27T16:32:39.777Z,6.26
2022-11-27T16:35:08.062Z,6.25
2022-11-27T16:37:35.078Z,6.21
2022-11-27T16:40:02.144Z,6.17
2022-11-27T16:42:29.115Z,6.29
2022-11-27T16:44:56.081Z,6.20
2022-11-27T16:47:22.891Z,6.24
2022-11-27T16:49:50.042Z,6.18
2022-11-27T16:52:17.347Z,6.18
2022-11-27T16:54:44.282Z,6.25
2022-11-27T16:57:11.523Z,6.24
2022-11-27T16:59:38.736Z,6.26
2022-11-27T17:02:05.889Z,6.20
2022-11-27T17:04:33.991Z,6.20
2022-11-27T17:07:01.484Z,6.18
2022-11-27T17:09:29.756Z,6.27
2022-11-27T17:11:58.338Z,6.21
2022-11-27T17:14:27.194Z,6.27
2022-11-27T17:16:54.236Z,6.31
2022-11-27T17:19:24.198Z,6.26
2022-11-27T17:21:51.164Z,6.16
2022-11-27T17:24:19.130Z,6.24
2022-11-27T17:26:48.743Z,6.27
2022-11-27T17:29:19.411Z,6.18
2022-11-27T17:31:47.134Z,6.20
2022-11-27T17:34:15.458Z,6.20
2022-11-27T17:36:44.984Z,6.25
2022-11-27T17:39:14.251Z,6.21
2022-11-27T17:41:44.376Z,6.21
2022-11-27T17:44:12.080Z,6.23
2022-11-27T17:46:40.125Z,6.22
2022-11-27T17:49:08.025Z,6.25
2022-11-27T17:51:36.662Z,6.19
2022-11-27T17:54:05.663Z,6.19
2022-11-27T17:56:35.429Z,6.24
2022-11-27T17:59:04.389Z,6.26
2022-11-27T18:01:34.700Z,6.23
2022-11-27T18:04:04.470Z,6.18
2022-11-27T18:06:33.091Z,6.20
2022-11-27T18:09:01.203Z,6.27
2022-11-27T18:11:32.670Z,6.12
2022-11-27T18:14:00.742Z,6.17
2022-11-27T18:16:35.185Z,6.21
2022-11-27T18:19:06.173Z,6.24
2022-11-27T18:21:34.113Z,6.11
2022-11-27T18:27:07.670Z,6.21
2022-11-27T18:29:38.167Z,6.19
2022-11-27T18:32:06.007Z,6.14
2022-11-27T18:34:35.328Z,6.18
2022-11-27T18:37:04.845Z,6.14
2022-11-27T18:39:34.087Z,6.19
2022-11-27T18:42:05.859Z,6.05
2022-11-27T18:44:37.344Z,6.17
2022-11-27T18:47:10.582Z,6.14
2022-11-27T18:49:39.655Z,6.24
2022-11-27T18:52:08.071Z,6.21
2022-11-27T18:54:38.867Z,6.18
2022-11-27T18:57:15.389Z,6.26
2022-11-27T18:59:45.313Z,6.22
2022-11-27T19:02:13.371Z,6.27
2022-11-27T19:04:40.835Z,6.18
2022-11-27T19:07:07.882Z,6.18
2022-11-27T19:09:37.224Z,6.22
2022-11-27T19:12:04.380Z,6.19
2022-11-27T19:14:31.250Z,6.27
2022-11-27T19:16:58.730Z,6.15
2022-11-27T19:19:53.392Z,6.10
2022-11-27T19:22:13.253Z,6.16
2022-11-27T19:24:40.163Z,6.21
2022-11-27T19:27:07.068Z,6.30
2022-11-27T19:29:33.938Z,6.28
2022-11-27T19:32:01.313Z,6.20
2022-11-27T19:34:28.764Z,6.12
2022-11-27T19:36:56.933Z,6.13
2022-11-27T19:39:23.836Z,6.14
2022-11-27T19:41:50.770Z,6.19
2022-11-27T19:44:18.039Z,6.20
2022-11-27T19:46:46.463Z,6.15
2022-11-27T19:49:17.742Z,6.19
2022-11-27T19:51:45.149Z,6.16
2022-11-27T19:54:15.832Z,6.11
2022-11-27T19:56:43.387Z,6.13
2022-11-27T19:59:12.371Z,6.13
2022-11-27T20:01:40.534Z,6.24
2022-11-27T20:04:10.505Z,6.17
2022-11-27T20:06:37.801Z,6.16
2022-11-27T20:09:05.717Z,6.22
2022-11-27T20:11:35.182Z,6.23
2022-11-27T20:14:04.512Z,6.16
2022-11-27T20:16:32.849Z,6.16
2022-11-27T20:19:01.463Z,6.25
2022-11-27T20:21:28.779Z,6.20
2022-11-27T20:23:56.938Z,6.26
2022-11-27T20:26:26.737Z,6.19
2022-11-27T20:28:54.733Z,6.20
2022-11-27T20:31:24.966Z,6.12
2022-11-27T20:33:53.643Z,6.13
2022-11-27T20:36:22.278Z,6.19
2022-11-27T20:38:50.245Z,6.17
2022-11-27T20:41:20.486Z,6.16
2022-11-27T20:43:47.710Z,6.24
2022-11-27T20:46:16.372Z,6.13
2022-11-27T20:48:46.618Z,6.34
2022-11-27T20:51:16.941Z,6.28
2022-11-27T20:53:45.786Z,6.21
2022-11-27T20:56:14.811Z,6.21
2022-11-27T20:58:44.501Z,6.22
2022-11-27T21:01:14.492Z,6.25
2022-11-27T21:03:41.596Z,6.26
2022-11-27T21:06:08.812Z,6.30
2022-11-27T21:08:36.138Z,6.32
2022-11-27T21:11:18.453Z,6.22
2022-11-27T21:13:45.465Z,6.34
2022-11-27T21:16:14.271Z,6.28
2022-11-27T21:18:42.582Z,6.25
2022-11-27T21:21:13.057Z,6.34
2022-11-27T21:23:41.755Z,6.32
2022-11-27T21:26:09.701Z,6.26
2022-11-27T21:28:36.906Z,6.24
2022-11-27T21:31:08.387Z,6.16
2022-11-27T21:33:35.966Z,6.30
2022-11-27T21:36:05.016Z,6.30
2022-11-27T21:38:32.784Z,6.34
2022-11-27T21:40:59.991Z,6.26
2022-11-27T21:43:27.379Z,6.31
2022-11-27T21:45:54.482Z,6.38
2022-11-27T21:48:21.509Z,6.31
2022-11-27T21:50:48.427Z,6.33
2022-11-27T21:53:15.420Z,6.29
2022-11-27T21:55:43.169Z,6.43
2022-11-27T21:58:10.137Z,6.27
2022-11-27T22:00:37.436Z,6.38
2022-11-27T22:03:04.485Z,6.38
2022-11-27T22:05:31.360Z,6.37
2022-11-27T22:07:58.357Z,6.37
2022-11-27T22:10:25.586Z,6.33
2022-11-27T22:12:52.597Z,6.35
2022-11-27T22:15:19.424Z,6.37
2022-11-27T22:17:46.346Z,6.46
2022-11-27T22:20:13.811Z,6.43
2022-11-27T22:22:40.754Z,6.38
2022-11-27T22:25:08.071Z,6.35
2022-11-27T22:27:35.181Z,6.37
2022-11-27T22:30:02.064Z,6.38
2022-11-27T22:32:29.080Z,6.36
2022-11-27T22:34:55.912Z,6.38
2022-11-27T22:37:22.856Z,6.40
2022-11-27T22:39:49.643Z,6.33
2022-11-27T22:42:16.576Z,6.39
2022-11-27T22:44:43.697Z,6.39
2022-11-27T22:47:10.697Z,6.42
2022-11-27T22:49:37.629Z,6.41
2022-11-27T22:52:04.706Z,6.36
2022-11-27T22:54:31.719Z,6.37
2022-11-27T22:56:59.260Z,6.45
2022-11-27T22:59:32.771Z,6.38
2022-11-27T23:02:09.782Z,6.36
2022-11-27T23:04:38.163Z,6.43
2022-11-27T23:07:06.989Z,6.43
2022-11-27T23:09:35.118Z,6.45
2022-11-27T23:12:02.894Z,6.40
2022-11-27T23:14:30.410Z,6.47
2022-11-27T23:16:58.053Z,6.39
2022-11-27T23:19:25.672Z,6.38
2022-11-27T23:21:53.745Z,6.47
2022-11-27T23:24:21.385Z,6.41
2022-11-27T23:26:48.879Z,6.42
2022-11-27T23:29:16.629Z,6.45
2022-11-27T23:31:44.047Z,6.47
2022-11-27T23:34:13.762Z,6.46
2022-11-27T23:36:41.169Z,6.43
2022-11-27T23:39:11.195Z,6.44
2022-11-27T23:41:39.959Z,6.43
2022-11-27T23:44:07.969Z,6.46
2022-11-27T23:46:35.314Z,6.50
2022-11-27T23:49:03.692Z,6.52
2022-11-27T23:51:32.827Z,6.55
2022-11-27T23:54:01.035Z,6.49
2022-11-27T23:56:31.231Z,6.53
2022-11-27T23:58:59.239Z,6.56
